Time;durP1;ratioP1;P1;durP2;ratioP2;P2;SDS_P1;SDS_P2;PMS_P1;PMS_P2;Temp;Humidity;BMP_temperature;BMP_pressure;BME280_temperature;BME280_humidity;BME280_pressure;Samples;Min_cycle;Max_cycle;Signal;HPM_P1;HPM_P2
2021/12/19 18:15:58;;;;;;;;;;;;;;;;;;;;;
2021/12/19 19:10:12;;;;;;;13.93;2.35;;;;;;;;;;5546537;23;20061;-86
2021/12/19 19:56:34;;;;;;;12.70;2.63;;;;;;;;;;5880517;23;20394;-95
2021/12/19 19:58:59;;;;;;;8.23;2.22;;;;;;;;;;4883330;29;20025;-94
2021/12/19 20:01:25;;;;;;;14.73;3.20;;;;;;;;;;4885693;29;20025;-93
2021/12/19 20:03:50;;;;;;;10.60;2.00;;;;;;;;;;4884661;29;20017;-94
2021/12/19 20:06:15;;;;;;;10.32;1.98;;;;;;;;;;4884603;29;20077;-95
2021/12/19 20:08:41;;;;;;;9.02;2.08;;;;;;;;;;4882652;29;20081;-93
2021/12/19 20:11:06;;;;;;;8.85;2.13;;;;;;;;;;4882579;29;20064;-94
2021/12/19 20:13:32;;;;;;;8.05;2.38;;;;;;;;;;4880647;29;20025;-94
2021/12/19 20:15:57;;;;;;;15.30;2.90;;;;;;;;;;4881654;29;20036;-94
2021/12/19 20:18:25;;;;;;;7.82;2.15;;;;;;;;;;4883231;29;20024;-95
2021/12/19 20:20:50;;;;;;;16.80;3.20;;;;;;;;;;4882982;29;20017;-94
2021/12/19 20:23:19;;;;;;;9.63;1.88;;;;;;;;;;4883150;29;20081;-95
2021/12/19 20:25:47;;;;;;;11.32;2.38;;;;;;;;;;4883414;29;20120;-96
2021/12/19 20:28:12;;;;;;;11.88;2.00;;;;;;;;;;4881109;29;20058;-95
2021/12/19 20:30:38;;;;;;;10.18;2.70;;;;;;;;;;4884520;29;20021;-93
2021/12/19 20:33:04;;;;;;;10.02;2.33;;;;;;;;;;4884630;29;20032;-94
2021/12/19 20:35:32;;;;;;;7.57;2.03;;;;;;;;;;4886103;29;20040;-94
2021/12/19 20:37:58;;;;;;;5.95;2.03;;;;;;;;;;4886778;29;20025;-93
2021/12/19 20:40:26;;;;;;;10.00;2.00;;;;;;;;;;4884270;29;20108;-92
2021/12/19 20:42:52;;;;;;;9.77;2.35;;;;;;;;;;4884230;29;20021;-93
2021/12/19 20:45:20;;;;;;;16.35;2.00;;;;;;;;;;4882372;29;20058;-92
2021/12/19 20:47:45;;;;;;;10.23;2.42;;;;;;;;;;4882175;29;20113;-93
2021/12/19 20:50:12;;;;;;;18.40;3.42;;;;;;;;;;4885144;29;20448;-94
2021/12/19 20:52:38;;;;;;;12.55;2.38;;;;;;;;;;4894550;29;20029;-92
2021/12/19 20:55:05;;;;;;;11.45;1.98;;;;;;;;;;4894056;29;20025;-92
2021/12/19 20:57:30;;;;;;;12.85;2.05;;;;;;;;;;4895424;29;20061;-93
2021/12/19 21:00:01;;;;;;;8.52;2.33;;;;;;;;;;4898003;29;20010;-95
2021/12/19 21:02:27;;;;;;;15.98;1.98;;;;;;;;;;4898818;29;20033;-93
2021/12/19 21:04:52;;;;;;;15.23;2.22;;;;;;;;;;4898622;29;20036;-94
2021/12/19 21:07:17;;;;;;;17.30;2.10;;;;;;;;;;4896749;29;20045;-92
2021/12/19 21:09:43;;;;;;;9.90;1.92;;;;;;;;;;4896583;29;20025;-94
2021/12/19 21:12:15;;;;;;;14.18;2.55;;;;;;;;;;4890773;29;20082;-94
2021/12/19 21:14:59;;;;;;;12.45;2.30;;;;;;;;;;4887992;29;20084;-92
2021/12/19 21:20:09;;;;;;;11.65;1.88;;;;;;;;;;4880955;29;20532;-92
2021/12/19 21:22:36;;;;;;;14.20;2.85;;;;;;;;;;4879567;29;20029;-94
2021/12/19 21:25:05;;;;;;;11.13;2.30;;;;;;;;;;4882569;29;20055;-92
2021/12/19 21:27:34;;;;;;;11.65;2.80;;;;;;;;;;4880598;29;20119;-93
2021/12/19 21:29:59;;;;;;;9.18;2.25;;;;;;;;;;4880506;29;20511;-93
2021/12/19 21:32:25;;;;;;;14.30;2.25;;;;;;;;;;4881992;29;20029;-92
2021/12/19 21:35:09;;;;;;;13.45;3.10;;;;;;;;;;4879984;29;20097;-93
2021/12/19 21:40:20;;;;;;;9.68;1.83;;;;;;;;;;4882405;29;20123;-93
2021/12/19 21:42:46;;;;;;;11.90;1.63;;;;;;;;;;4886043;29;20056;-94
2021/12/19 21:45:11;;;;;;;11.88;1.95;;;;;;;;;;4889080;29;20051;-92
2021/12/19 21:47:39;;;;;;;14.88;2.60;;;;;;;;;;4884707;29;20033;-93
2021/12/19 21:50:05;;;;;;;19.20;2.50;;;;;;;;;;4885154;29;20100;-92
2021/12/19 21:52:31;;;;;;;16.75;2.08;;;;;;;;;;4884669;29;20060;-93
2021/12/19 21:54:56;;;;;;;14.52;2.50;;;;;;;;;;4887682;29;20049;-94
2021/12/19 21:57:21;;;;;;;6.90;1.80;;;;;;;;;;4885445;29;20036;-93
2021/12/19 21:59:46;;;;;;;11.75;1.92;;;;;;;;;;4887928;29;20029;-93
2021/12/19 22:02:12;;;;;;;13.77;2.40;;;;;;;;;;4894355;29;20077;-93
2021/12/19 22:04:37;;;;;;;13.70;2.45;;;;;;;;;;4891516;29;20020;-93
2021/12/19 22:07:03;;;;;;;15.32;2.30;;;;;;;;;;4889813;29;20032;-93
2021/12/19 22:09:30;;;;;;;13.13;2.03;;;;;;;;;;4887497;29;20021;-92
2021/12/19 22:12:08;;;;;;;11.75;2.03;;;;;;;;;;4889702;29;20029;-93
2021/12/19 22:17:22;;;;;;;21.90;2.75;;;;;;;;;;4885613;29;20084;-93
2021/12/19 22:19:48;;;;;;;14.70;2.35;;;;;;;;;;4886839;29;20050;-94
2021/12/19 22:22:13;;;;;;;6.68;1.63;;;;;;;;;;4888902;29;20086;-93
2021/12/19 22:24:38;;;;;;;11.80;3.22;;;;;;;;;;4887867;29;20025;-94
2021/12/19 22:27:04;;;;;;;13.10;2.33;;;;;;;;;;4885358;29;20036;-94
2021/12/19 22:29:29;;;;;;;12.38;2.25;;;;;;;;;;4883640;29;20053;-92
2021/12/19 22:31:54;;;;;;;18.38;2.97;;;;;;;;;;4883763;29;20017;-93
2021/12/19 22:34:20;;;;;;;14.10;2.40;;;;;;;;;;4882382;29;20046;-94
2021/12/19 22:36:45;;;;;;;22.25;3.67;;;;;;;;;;4882742;29;20282;-92
2021/12/19 22:39:10;;;;;;;20.02;2.35;;;;;;;;;;4880484;29;20021;-91
2021/12/19 22:41:35;;;;;;;13.77;2.03;;;;;;;;;;4880485;29;20021;-91
2021/12/19 22:44:02;;;;;;;16.15;2.63;;;;;;;;;;4881628;29;20057;-91
2021/12/19 22:46:28;;;;;;;15.85;2.15;;;;;;;;;;4879903;29;20116;-91
2021/12/19 22:48:54;;;;;;;17.83;2.53;;;;;;;;;;4880036;29;20037;-92
2021/12/19 22:51:19;;;;;;;14.30;2.55;;;;;;;;;;4879455;29;20085;-91
2021/12/19 22:53:44;;;;;;;24.65;3.10;;;;;;;;;;4879978;29;20025;-92
2021/12/19 22:56:09;;;;;;;12.65;2.20;;;;;;;;;;4881069;29;20036;-91
2021/12/19 22:58:35;;;;;;;11.32;2.20;;;;;;;;;;4879414;29;20131;-91
2021/12/19 23:01:03;;;;;;;15.35;2.33;;;;;;;;;;4879846;29;20049;-91
2021/12/19 23:03:28;;;;;;;12.63;2.95;;;;;;;;;;4879812;29;20021;-92
2021/12/19 23:05:54;;;;;;;11.85;2.17;;;;;;;;;;4879643;29;20031;-90
2021/12/19 23:08:20;;;;;;;12.80;2.10;;;;;;;;;;4880700;29;20069;-91
2021/12/19 23:11:09;;;;;;;11.15;2.05;;;;;;;;;;4881116;29;20533;-91
2021/12/19 23:13:45;;;;;;;23.25;2.60;;;;;;;;;;4880570;29;20021;-92
2021/12/19 23:16:22;;;;;;;12.20;2.40;;;;;;;;;;4882266;29;20029;-92
2021/12/19 23:18:48;;;;;;;12.85;2.47;;;;;;;;;;4882332;29;20370;-92
2021/12/19 23:21:13;;;;;;;14.38;2.38;;;;;;;;;;4883202;29;20489;-93
2021/12/19 23:23:39;;;;;;;13.88;2.40;;;;;;;;;;4884043;29;20437;-90
2021/12/19 23:26:04;;;;;;;15.00;2.42;;;;;;;;;;4884204;29;20021;-91
2021/12/19 23:28:30;;;;;;;22.65;3.03;;;;;;;;;;4883461;29;20068;-91
2021/12/19 23:30:55;;;;;;;14.07;2.53;;;;;;;;;;4883655;29;20035;-91
2021/12/19 23:34:02;;;;;;;15.73;2.72;;;;;;;;;;4881968;29;20151;-91
2021/12/19 23:36:14;;;;;;;13.93;2.83;;;;;;;;;;4881732;29;20124;-91
2021/12/19 23:39:30;;;;;;;22.85;3.15;;;;;;;;;;4884283;29;20021;-88
2021/12/19 23:46:48;;;;;;;11.98;2.53;;;;;;;;;;4887900;29;20053;-90
2021/12/19 23:49:13;;;;;;;12.68;2.47;;;;;;;;;;4883414;29;20033;-91
2021/12/19 23:51:38;;;;;;;18.23;2.30;;;;;;;;;;4881968;29;20112;-91
2021/12/19 23:54:03;;;;;;;12.55;2.60;;;;;;;;;;4881620;29;20488;-92
2021/12/19 23:56:29;;;;;;;11.90;2.38;;;;;;;;;;4881473;29;20025;-92
2021/12/19 23:58:54;;;;;;;13.18;2.20;;;;;;;;;;4880799;29;20029;-92
